createdAt,value
2023-03-21T00:01:53.836Z,56.23
2023-03-21T00:04:23.505Z,56.19
2023-03-21T00:06:51.878Z,56.18
2023-03-21T00:09:20.502Z,56.18
2023-03-21T00:11:48.978Z,56.19
2023-03-21T00:14:20.517Z,56.16
2023-03-21T00:16:53.127Z,56.13
2023-03-21T00:19:21.898Z,56.11
2023-03-21T00:22:06.426Z,56.08
2023-03-21T00:24:36.165Z,56.10
2023-03-21T00:29:52.863Z,56.09
2023-03-21T00:32:22.304Z,56.06
2023-03-21T00:35:40.741Z,56.03
2023-03-21T00:37:38.749Z,56.02
2023-03-21T00:40:16.302Z,55.99
2023-03-21T00:42:47.774Z,56.01
2023-03-21T00:45:16.696Z,55.97
2023-03-21T00:47:44.611Z,55.96
2023-03-21T00:50:13.949Z,55.97
2023-03-21T00:52:41.770Z,56.00
2023-03-21T00:55:19.555Z,56.02
2023-03-21T00:57:56.118Z,56.01
2023-03-21T01:00:27.811Z,56.03
2023-03-21T01:03:08.551Z,56.02
2023-03-21T01:06:04.978Z,56.05
2023-03-21T01:08:52.243Z,56.05
2023-03-21T01:11:28.260Z,56.05
2023-03-21T01:14:10.776Z,56.04
2023-03-21T01:16:43.644Z,56.03
2023-03-21T01:19:25.044Z,56.06
2023-03-21T01:21:55.212Z,56.07
2023-03-21T01:24:23.463Z,56.05
2023-03-21T01:26:51.310Z,56.05
2023-03-21T01:29:19.357Z,56.04
2023-03-21T01:31:47.938Z,56.07
2023-03-21T01:34:15.979Z,56.03
2023-03-21T01:36:44.001Z,56.05
2023-03-21T01:39:12.775Z,56.04
2023-03-21T01:41:44.044Z,56.03
2023-03-21T01:44:18.740Z,56.03
2023-03-21T01:47:03.998Z,56.03
2023-03-21T01:49:48.654Z,56.04
2023-03-21T01:52:50.021Z,56.04
2023-03-21T01:55:19.400Z,56.05
2023-03-21T01:58:05.501Z,56.04
2023-03-21T02:00:38.319Z,56.06
2023-03-21T02:03:16.901Z,56.07
2023-03-21T02:06:13.791Z,56.05
2023-03-21T02:08:43.186Z,56.11
2023-03-21T02:11:11.766Z,56.09
2023-03-21T02:13:40.795Z,56.11
2023-03-21T02:16:15.616Z,56.11
2023-03-21T02:19:15.718Z,56.13
2023-03-21T02:21:57.873Z,56.13
2023-03-21T02:24:54.650Z,56.12
2023-03-21T02:27:29.251Z,56.13
2023-03-21T02:30:45.642Z,56.08
2023-03-21T02:33:52.179Z,56.03
2023-03-21T02:36:41.755Z,56.15
2023-03-21T02:39:36.947Z,56.15
2023-03-21T02:42:17.027Z,56.20
2023-03-21T02:45:09.438Z,56.17
2023-03-21T02:47:49.839Z,56.17
2023-03-21T02:50:32.097Z,56.15
2023-03-21T02:53:04.245Z,56.20
2023-03-21T02:55:34.887Z,56.19
2023-03-21T02:58:12.757Z,56.18
2023-03-21T03:00:44.876Z,56.16
2023-03-21T03:03:24.824Z,56.13
2023-03-21T03:06:01.217Z,56.14
2023-03-21T03:09:02.844Z,56.17
2023-03-21T03:11:41.307Z,56.18
2023-03-21T03:14:56.445Z,56.19
2023-03-21T03:17:48.936Z,56.24
2023-03-21T03:20:25.903Z,56.25
2023-03-21T03:22:57.057Z,56.24
2023-03-21T03:25:41.921Z,56.20
2023-03-21T03:28:15.735Z,56.21
2023-03-21T03:30:57.445Z,56.17
2023-03-21T03:33:39.444Z,56.22
2023-03-21T03:36:18.698Z,56.21
2023-03-21T03:38:54.933Z,56.25
2023-03-21T03:41:26.788Z,56.21
2023-03-21T03:43:59.775Z,56.22
2023-03-21T03:46:36.970Z,56.22
2023-03-21T03:49:16.215Z,56.25
2023-03-21T03:52:07.534Z,56.24
2023-03-21T03:54:43.657Z,56.19
2023-03-21T03:57:13.994Z,56.22
2023-03-21T03:59:44.749Z,56.17
2023-03-21T04:02:14.660Z,56.14
2023-03-21T04:04:43.102Z,56.10
2023-03-21T04:07:11.161Z,56.10
2023-03-21T04:09:44.506Z,56.07
2023-03-21T04:12:14.029Z,56.08
2023-03-21T04:14:47.145Z,56.05
2023-03-21T04:17:16.682Z,56.04
2023-03-21T04:19:45.717Z,56.02
2023-03-21T04:22:13.815Z,55.98
2023-03-21T04:24:43.034Z,55.98
2023-03-21T04:27:11.135Z,55.99
2023-03-21T04:29:39.438Z,56.03
2023-03-21T04:32:16.562Z,55.99
2023-03-21T04:34:54.166Z,55.99
2023-03-21T04:37:23.794Z,55.99
2023-03-21T04:39:52.114Z,56.01
2023-03-21T04:42:20.326Z,55.99
2023-03-21T04:44:49.575Z,55.98
2023-03-21T04:47:20.468Z,55.99
2023-03-21T04:49:48.585Z,56.00
2023-03-21T04:52:16.717Z,55.93
2023-03-21T04:54:44.585Z,55.92
2023-03-21T04:57:12.928Z,55.96
2023-03-21T04:59:41.858Z,55.98
2023-03-21T05:02:09.981Z,55.95
2023-03-21T05:04:38.827Z,55.91
2023-03-21T05:07:06.810Z,55.91
2023-03-21T05:09:35.157Z,55.95
2023-03-21T05:12:03.962Z,55.93
2023-03-21T05:14:32.628Z,55.93
2023-03-21T05:17:05.273Z,55.95
2023-03-21T05:19:40.562Z,55.94
2023-03-21T05:22:10.966Z,55.92
2023-03-21T05:24:42.015Z,55.92
2023-03-21T05:27:14.217Z,55.90
2023-03-21T05:29:43.881Z,55.87
2023-03-21T05:32:11.908Z,55.87
2023-03-21T05:34:39.924Z,55.84
2023-03-21T05:37:08.142Z,55.81
2023-03-21T05:39:36.722Z,55.80
2023-03-21T05:42:05.001Z,55.74
2023-03-21T05:44:33.488Z,55.67
2023-03-21T05:47:01.789Z,55.66
2023-03-21T05:49:31.815Z,55.63
2023-03-21T05:52:01.171Z,55.57
2023-03-21T05:54:29.106Z,55.53
2023-03-21T05:56:57.200Z,55.50
2023-03-21T05:59:26.270Z,55.42
2023-03-21T06:01:54.647Z,55.35
2023-03-21T06:04:22.977Z,55.29
2023-03-21T06:06:52.294Z,55.28
2023-03-21T06:09:22.751Z,55.32
2023-03-21T06:11:55.656Z,55.31
2023-03-21T06:14:25.596Z,55.29
2023-03-21T06:16:54.869Z,55.21
2023-03-21T06:19:23.574Z,55.13
2023-03-21T06:21:54.399Z,55.03
2023-03-21T06:24:22.670Z,54.91
2023-03-21T06:26:50.737Z,54.84
2023-03-21T06:29:19.153Z,54.78
2023-03-21T06:31:47.967Z,54.66
2023-03-21T06:34:16.472Z,54.50
2023-03-21T06:36:44.854Z,54.42
2023-03-21T06:39:16.182Z,54.38
2023-03-21T06:41:44.741Z,54.22
2023-03-21T06:44:12.745Z,54.18
2023-03-21T06:46:44.526Z,54.14
2023-03-21T06:49:13.604Z,54.02
2023-03-21T06:51:42.170Z,53.86
2023-03-21T06:54:10.985Z,53.59
2023-03-21T06:56:39.374Z,53.31
2023-03-21T06:59:11.272Z,53.01
2023-03-21T07:01:40.672Z,52.92
2023-03-21T07:04:09.752Z,52.83
2023-03-21T07:06:38.320Z,52.69
2023-03-21T07:09:06.974Z,52.50
2023-03-21T07:11:37.328Z,52.09
2023-03-21T07:14:06.653Z,52.02
2023-03-21T07:16:35.173Z,51.96
2023-03-21T07:19:03.600Z,51.78
2023-03-21T07:21:31.470Z,51.66
2023-03-21T07:24:01.157Z,51.62
2023-03-21T07:26:29.593Z,51.45
2023-03-21T07:28:59.329Z,51.27
2023-03-21T07:31:28.719Z,51.09
2023-03-21T07:33:57.026Z,50.94
2023-03-21T07:36:28.239Z,50.77
2023-03-21T07:38:56.614Z,50.67
2023-03-21T07:41:24.924Z,50.59
2023-03-21T07:43:52.973Z,50.48
2023-03-21T07:46:21.274Z,50.22
2023-03-21T07:48:49.610Z,49.94
2023-03-21T07:51:17.519Z,49.68
2023-03-21T07:53:48.638Z,49.33
2023-03-21T07:56:16.852Z,49.03
2023-03-21T07:58:45.349Z,48.80
2023-03-21T08:01:13.827Z,48.59
2023-03-21T08:03:42.059Z,48.49
2023-03-21T08:06:10.467Z,48.40
2023-03-21T08:08:38.426Z,48.23
2023-03-21T08:11:07.661Z,48.28
2023-03-21T08:13:35.607Z,48.33
2023-03-21T08:16:03.901Z,48.37
2023-03-21T08:18:32.633Z,48.52
2023-03-21T08:21:00.844Z,48.47
2023-03-21T08:23:29.884Z,48.81
2023-03-21T08:25:58.095Z,48.80
2023-03-21T08:28:25.961Z,49.09
2023-03-21T08:30:53.964Z,49.09
2023-03-21T08:33:23.030Z,49.06
2023-03-21T08:35:51.127Z,48.52
2023-03-21T08:38:18.872Z,47.18
2023-03-21T08:40:46.991Z,45.60
2023-03-21T08:43:15.043Z,43.10
2023-03-21T08:45:42.977Z,41.01
2023-03-21T08:48:11.199Z,39.37
2023-03-21T08:50:38.991Z,38.23
2023-03-21T08:53:07.079Z,36.50
2023-03-21T08:55:35.723Z,36.71
2023-03-21T08:58:04.070Z,34.99
2023-03-21T09:00:32.395Z,34.46
2023-03-21T09:03:01.622Z,33.22
2023-03-21T09:05:30.180Z,33.09
2023-03-21T09:07:58.144Z,33.25
2023-03-21T09:10:26.417Z,32.29
2023-03-21T09:12:56.858Z,32.41
2023-03-21T09:15:28.912Z,30.91
2023-03-21T09:17:58.973Z,31.62
2023-03-21T09:20:31.374Z,31.32
2023-03-21T09:23:02.077Z,29.64
2023-03-21T09:25:31.728Z,29.03
2023-03-21T09:28:01.124Z,30.23
2023-03-21T09:30:30.208Z,30.52
2023-03-21T09:33:13.359Z,29.00
2023-03-21T09:35:42.854Z,30.44
2023-03-21T09:38:10.830Z,31.42
2023-03-21T09:41:07.997Z,30.69
2023-03-21T09:43:50.297Z,30.50
2023-03-21T09:46:42.891Z,28.18
2023-03-21T09:49:31.204Z,29.51
2023-03-21T09:52:05.593Z,29.33
2023-03-21T09:54:40.715Z,30.07
2023-03-21T09:57:23.709Z,30.21
2023-03-21T09:59:54.863Z,28.84
2023-03-21T10:02:39.611Z,30.40
2023-03-21T10:05:20.652Z,30.58
2023-03-21T10:08:19.502Z,31.18
2023-03-21T10:10:51.190Z,32.39
2023-03-21T10:13:32.491Z,32.24
2023-03-21T10:16:09.727Z,32.87
2023-03-21T10:18:41.204Z,33.68
2023-03-21T10:21:37.574Z,34.96
2023-03-21T10:24:06.788Z,35.52
2023-03-21T10:26:34.927Z,36.38
2023-03-21T10:29:03.876Z,36.68
2023-03-21T10:31:32.724Z,37.48
2023-03-21T10:34:09.818Z,38.04
2023-03-21T10:36:38.682Z,38.72
2023-03-21T10:39:16.263Z,38.23
2023-03-21T10:41:44.413Z,39.36
2023-03-21T10:44:16.687Z,39.94
2023-03-21T10:46:59.278Z,40.41
2023-03-21T10:49:40.142Z,40.69
2023-03-21T10:52:11.154Z,40.82
2023-03-21T10:54:39.368Z,40.71
2023-03-21T10:57:15.828Z,40.95
2023-03-21T10:59:57.831Z,41.10
2023-03-21T11:02:31.560Z,41.28
2023-03-21T11:05:06.384Z,41.60
2023-03-21T11:07:37.126Z,41.83
2023-03-21T11:10:19.851Z,41.87
2023-03-21T11:12:57.380Z,42.17
2023-03-21T11:15:37.908Z,42.44
2023-03-21T11:18:33.399Z,42.73
2023-03-21T11:21:07.743Z,42.87
2023-03-21T11:23:41.534Z,43.43
2023-03-21T11:26:16.824Z,43.59
2023-03-21T11:28:46.824Z,43.72
2023-03-21T11:31:17.161Z,44.00
2023-03-21T11:33:57.146Z,43.92
2023-03-21T11:36:33.827Z,44.13
2023-03-21T11:39:11.603Z,44.25
2023-03-21T11:41:42.234Z,44.18
2023-03-21T11:44:35.704Z,44.07
2023-03-21T11:47:03.744Z,44.05
2023-03-21T11:49:31.706Z,43.86
2023-03-21T11:52:34.876Z,43.83
2023-03-21T11:55:21.027Z,44.03
2023-03-21T11:58:15.010Z,44.23
2023-03-21T12:01:13.239Z,45.28
2023-03-21T12:03:55.133Z,45.28
2023-03-21T12:06:30.615Z,46.15
2023-03-21T12:09:22.017Z,46.27
2023-03-21T12:12:13.059Z,45.31
2023-03-21T12:15:01.098Z,46.02
2023-03-21T12:17:40.960Z,46.22
2023-03-21T12:20:24.238Z,46.58
2023-03-21T12:22:52.233Z,47.30
2023-03-21T12:25:31.628Z,47.50
2023-03-21T12:28:32.063Z,47.55
2023-03-21T12:31:06.721Z,47.26
2023-03-21T12:34:02.040Z,47.00
2023-03-21T12:36:39.473Z,47.37
2023-03-21T12:39:30.951Z,47.57
2023-03-21T12:41:59.295Z,47.37
2023-03-21T12:44:31.889Z,45.01
2023-03-21T12:47:05.094Z,42.73
2023-03-21T12:49:46.478Z,42.81
2023-03-21T12:52:34.688Z,43.06
2023-03-21T12:55:28.164Z,41.70
2023-03-21T12:58:04.652Z,41.50
2023-03-21T13:00:45.815Z,40.53
2023-03-21T13:03:27.700Z,41.05
2023-03-21T13:06:04.293Z,41.11
2023-03-21T13:08:44.294Z,41.15
2023-03-21T13:11:16.825Z,40.56
2023-03-21T13:13:52.015Z,39.93
2023-03-21T13:16:47.127Z,40.43
2023-03-21T13:19:33.334Z,40.70
2023-03-21T13:22:11.511Z,40.95
2023-03-21T13:24:49.045Z,40.89
2023-03-21T13:27:35.547Z,39.97
2023-03-21T13:30:18.246Z,40.49
2023-03-21T13:32:49.772Z,41.01
2023-03-21T13:35:33.023Z,40.74
2023-03-21T13:38:03.793Z,40.51
2023-03-21T13:40:43.833Z,40.56
2023-03-21T13:43:33.101Z,40.93
2023-03-21T13:46:43.550Z,41.55
2023-03-21T13:49:33.555Z,40.81
2023-03-21T13:52:26.228Z,40.04
2023-03-21T13:54:57.847Z,39.00
2023-03-21T13:57:32.192Z,38.90
2023-03-21T14:00:30.495Z,38.11
2023-03-21T14:03:19.692Z,38.39
2023-03-21T14:05:51.672Z,38.61
2023-03-21T14:08:31.253Z,38.95
2023-03-21T14:11:08.028Z,39.58
2023-03-21T14:13:48.411Z,39.59
2023-03-21T14:16:21.035Z,40.21
2023-03-21T14:18:56.238Z,40.14
2023-03-21T14:21:28.275Z,40.15
2023-03-21T14:24:07.838Z,40.21
2023-03-21T14:26:41.025Z,40.54
2023-03-21T14:29:25.587Z,40.69
2023-03-21T14:32:00.020Z,41.04
2023-03-21T14:34:31.551Z,41.30
2023-03-21T14:36:59.634Z,41.76
2023-03-21T14:39:30.921Z,41.56
2023-03-21T14:42:13.774Z,41.04
2023-03-21T14:44:55.036Z,40.97
2023-03-21T14:47:27.527Z,41.01
2023-03-21T14:49:57.173Z,41.15
2023-03-21T14:52:31.730Z,41.33
2023-03-21T14:55:01.624Z,41.71
2023-03-21T14:57:32.783Z,41.99
2023-03-21T15:00:23.609Z,42.02
2023-03-21T15:02:52.887Z,42.30
2023-03-21T15:05:32.447Z,42.33
2023-03-21T15:08:08.193Z,42.63
2023-03-21T15:10:36.228Z,42.34
2023-03-21T15:13:21.701Z,42.58
2023-03-21T15:15:49.807Z,42.85
2023-03-21T15:18:25.756Z,42.56
2023-03-21T15:20:57.404Z,42.55
2023-03-21T15:23:30.824Z,42.94
2023-03-21T15:26:02.037Z,42.81
2023-03-21T15:28:30.878Z,43.27
2023-03-21T15:30:59.146Z,43.39
2023-03-21T15:33:27.427Z,43.69
2023-03-21T15:35:57.978Z,44.18
2023-03-21T15:38:45.312Z,43.85
2023-03-21T15:41:16.597Z,44.08
2023-03-21T15:43:45.221Z,44.58
2023-03-21T15:46:16.878Z,44.32
2023-03-21T15:48:45.483Z,44.57
2023-03-21T15:51:24.394Z,44.53
2023-03-21T15:53:54.324Z,44.69
2023-03-21T15:56:22.784Z,45.30
2023-03-21T15:58:52.928Z,45.00
2023-03-21T16:01:22.692Z,45.17
2023-03-21T16:04:05.791Z,45.69
2023-03-21T16:06:36.660Z,45.97
2023-03-21T16:09:12.320Z,45.93
2023-03-21T16:11:43.157Z,46.13
2023-03-21T16:14:11.410Z,46.27
2023-03-21T16:16:39.295Z,46.31
2023-03-21T16:19:07.637Z,46.64
2023-03-21T16:21:38.505Z,46.67
2023-03-21T16:24:09.144Z,47.15
2023-03-21T16:26:46.275Z,47.32
2023-03-21T16:29:15.686Z,47.67
2023-03-21T16:31:46.991Z,48.04
2023-03-21T16:34:15.025Z,48.29
2023-03-21T16:36:44.144Z,48.49
2023-03-21T16:39:25.830Z,48.71
2023-03-21T16:41:54.961Z,48.77
2023-03-21T16:44:22.778Z,49.10
2023-03-21T16:46:50.738Z,49.03
2023-03-21T16:49:27.672Z,49.01
2023-03-21T16:51:57.525Z,48.95
2023-03-21T16:54:25.911Z,49.25
2023-03-21T16:56:55.840Z,49.43
2023-03-21T16:59:23.710Z,49.24
2023-03-21T17:01:51.916Z,49.67
2023-03-21T17:04:19.755Z,50.31
2023-03-21T17:06:52.350Z,50.22
2023-03-21T17:09:23.430Z,49.75
2023-03-21T17:11:51.518Z,49.62
2023-03-21T17:14:21.632Z,50.19
2023-03-21T17:16:49.930Z,49.97
2023-03-21T17:19:20.740Z,49.81
2023-03-21T17:21:49.817Z,50.06
2023-03-21T17:24:18.114Z,50.64
2023-03-21T17:26:46.081Z,50.97
2023-03-21T17:29:14.770Z,51.49
2023-03-21T17:31:47.392Z,51.62
2023-03-21T17:34:15.991Z,51.69
2023-03-21T17:36:46.871Z,51.78
2023-03-21T17:39:22.834Z,51.82
2023-03-21T17:41:52.302Z,51.72
2023-03-21T17:44:21.257Z,51.68
2023-03-21T17:46:51.621Z,51.73
2023-03-21T17:49:21.397Z,51.69
2023-03-21T17:51:50.618Z,51.66
2023-03-21T17:54:19.157Z,51.68
2023-03-21T17:56:47.506Z,51.60
2023-03-21T17:59:15.563Z,51.63
2023-03-21T18:01:43.998Z,51.64
2023-03-21T18:04:12.283Z,51.61
2023-03-21T18:06:40.705Z,51.61
2023-03-21T18:09:11.931Z,51.62
2023-03-21T18:11:41.446Z,51.60
2023-03-21T18:14:17.183Z,51.58
2023-03-21T18:16:50.265Z,51.55
2023-03-21T18:19:21.020Z,51.58
2023-03-21T18:21:49.540Z,51.57
2023-03-21T18:24:17.591Z,51.58
2023-03-21T18:26:46.176Z,51.60
2023-03-21T18:30:15.813Z,51.59
2023-03-21T18:32:08.548Z,51.67
2023-03-21T18:34:39.168Z,51.71
2023-03-21T18:37:09.339Z,51.75
2023-03-21T18:39:38.475Z,51.81
2023-03-21T18:42:06.833Z,51.83
2023-03-21T18:44:39.195Z,51.93
2023-03-21T18:47:08.622Z,51.98
2023-03-21T18:52:27.349Z,52.08
2023-03-21T18:54:55.669Z,52.16
2023-03-21T18:57:36.453Z,52.23
2023-03-21T19:00:13.434Z,52.28
2023-03-21T19:02:47.136Z,52.33
2023-03-21T19:05:21.623Z,52.36
2023-03-21T19:07:51.742Z,52.47
2023-03-21T19:10:22.817Z,52.49
2023-03-21T19:12:53.009Z,52.54
2023-03-21T19:15:24.094Z,52.57
2023-03-21T19:20:46.610Z,52.68
2023-03-21T19:23:17.072Z,52.69
2023-03-21T19:25:46.058Z,52.76
2023-03-21T19:28:13.939Z,52.79
2023-03-21T19:30:49.637Z,52.78
2023-03-21T19:33:20.238Z,52.84
2023-03-21T19:36:06.139Z,52.85
2023-03-21T19:38:39.740Z,52.94
2023-03-21T19:41:08.072Z,52.96
2023-03-21T19:43:37.172Z,53.01
2023-03-21T19:46:06.156Z,53.03
2023-03-21T19:48:34.603Z,53.07
2023-03-21T19:53:51.974Z,53.18
2023-03-21T19:56:24.444Z,53.14
2023-03-21T19:58:56.165Z,53.20
2023-03-21T20:01:25.055Z,53.22
2023-03-21T20:03:54.497Z,53.27
2023-03-21T20:06:24.071Z,53.41
2023-03-21T20:09:47.218Z,53.36
2023-03-21T20:11:44.034Z,53.39
2023-03-21T20:14:12.071Z,53.41
2023-03-21T20:16:43.290Z,53.46
2023-03-21T20:19:16.119Z,53.52
2023-03-21T20:21:52.174Z,53.56
2023-03-21T20:24:24.998Z,53.58
2023-03-21T20:26:53.845Z,53.57
2023-03-21T20:30:07.625Z,53.61
2023-03-21T20:32:12.078Z,53.62
2023-03-21T20:34:40.724Z,53.63
2023-03-21T20:37:09.896Z,53.60
2023-03-21T20:39:38.460Z,53.65
2023-03-21T20:42:06.999Z,53.69
2023-03-21T20:44:55.852Z,53.74
2023-03-21T20:47:23.954Z,53.70
2023-03-21T20:49:52.226Z,53.71
2023-03-21T20:55:11.645Z,53.73
2023-03-21T20:57:41.184Z,53.70
2023-03-21T21:00:15.092Z,53.73
2023-03-21T21:02:45.879Z,53.72
2023-03-21T21:05:34.389Z,53.74
2023-03-21T21:08:03.867Z,53.71
2023-03-21T21:10:33.490Z,53.72
2023-03-21T21:13:02.919Z,53.74
2023-03-21T21:15:33.675Z,53.72
2023-03-21T21:18:05.990Z,53.69
2023-03-21T21:20:35.442Z,53.73
2023-03-21T21:23:04.622Z,53.73
2023-03-21T21:25:34.210Z,53.81
2023-03-21T21:28:02.929Z,53.76
2023-03-21T21:30:32.705Z,53.75
2023-03-21T21:33:01.454Z,53.76
2023-03-21T21:35:29.339Z,53.73
2023-03-21T21:37:57.540Z,53.74
2023-03-21T21:40:25.719Z,53.74
2023-03-21T21:42:55.708Z,53.77
2023-03-21T21:45:23.818Z,53.78
2023-03-21T21:47:52.035Z,53.77
2023-03-21T21:50:22.253Z,53.79
2023-03-21T21:52:54.711Z,53.80
2023-03-21T21:55:23.009Z,53.83
2023-03-21T21:57:51.436Z,53.90
2023-03-21T22:00:20.215Z,53.89
2023-03-21T22:02:48.467Z,53.91
2023-03-21T22:05:19.116Z,53.89
2023-03-21T22:07:52.542Z,53.96
2023-03-21T22:10:23.405Z,53.92
2023-03-21T22:12:51.836Z,53.97
2023-03-21T22:15:22.568Z,54.00
2023-03-21T22:17:51.532Z,54.02
2023-03-21T22:20:20.783Z,54.03
2023-03-21T22:22:49.176Z,54.09
2023-03-21T22:25:17.731Z,54.10
2023-03-21T22:27:45.947Z,54.11
2023-03-21T22:30:17.448Z,54.09
2023-03-21T22:32:53.895Z,54.06
2023-03-21T22:35:31.378Z,54.11
2023-03-21T22:37:59.500Z,54.10
2023-03-21T22:40:27.331Z,54.14
2023-03-21T22:42:56.070Z,54.15
2023-03-21T22:45:23.993Z,54.15
2023-03-21T22:47:51.792Z,54.17
2023-03-21T22:50:19.972Z,54.19
2023-03-21T22:52:47.731Z,54.20
2023-03-21T22:55:15.679Z,54.23
2023-03-21T22:57:43.914Z,54.27
2023-03-21T23:00:13.226Z,54.23
2023-03-21T23:02:42.044Z,54.26
2023-03-21T23:05:11.518Z,54.27
2023-03-21T23:07:39.457Z,54.32
2023-03-21T23:10:08.051Z,54.31
2023-03-21T23:12:37.579Z,54.32
2023-03-21T23:15:07.173Z,54.36
2023-03-21T23:17:35.608Z,54.42
2023-03-21T23:20:11.464Z,54.42
2023-03-21T23:22:39.506Z,54.41
2023-03-21T23:25:08.614Z,54.41
2023-03-21T23:27:37.899Z,54.45
2023-03-21T23:30:07.229Z,54.47
2023-03-21T23:32:35.502Z,54.47
2023-03-21T23:35:03.839Z,54.54
2023-03-21T23:37:31.731Z,54.53
2023-03-21T23:39:59.991Z,54.56
2023-03-21T23:42:29.485Z,54.54
2023-03-21T23:44:57.871Z,54.55
2023-03-21T23:47:28.270Z,54.56
2023-03-21T23:49:56.130Z,54.57
2023-03-21T23:52:24.078Z,54.58
2023-03-21T23:54:52.246Z,54.62
2023-03-21T23:57:20.330Z,54.64
2023-03-21T23:59:48.280Z,54.68
